Acapulco G. Alvarez, Mexico

7:51 AM CDT on October 02, 2014 (GMT -0500)
Gen Juan N Alvarez International | Change Station
CLOSE
Current Station
Airport
Location: Acapulco,
Elevation: 16 ft
Nearby Weather Stations

Elev 16 ft 16.76 °N, 99.75 °W | Updated 1 hour ago

Mostly Cloudy
Mostly Cloudy
75 °F
Feels Like 75 °F
N
8
Wind Variable Wind from ENE

Today
High -- | Low -- °F
--% Chance of Precip.
Yesterday
High -- | Low -- °F
Precip. -- in
7:29 AM 7:27 PM
First Quarter, 58% visible
Pressure 29.85 in
Visibility 8.0 miles
Clouds Scattered Clouds 2000 ft
Mostly Cloudy 9000 ft
Mostly Cloudy 30000 ft
Dew Point 72 °F
Humidity 89%
Rainfall 5.05 in
Snow Depth Not available.
UV 0 out of 12
Pollen Not available.
Air Quality Not available.
Flu Activity Not available.
METAR MMAA 021145Z 07007KT 8SM SCT020CB BKN090 BKN300 24/22 A2985 RMK SLP107 52004 934 8/362

More Conditions Fewer Conditions

Pressure 29.85 in
Visibility 8.0 miles
Clouds Scattered Clouds 2000 ft
Mostly Cloudy 9000 ft
Mostly Cloudy 30000 ft
Dew Point 72 °F
Humidity 89%
Rainfall 5.05 in
Snow Depth Not available.
UV 0 out of 12
Pollen Not available.
Air Quality Not available.
Flu Activity Not available.
METAR MMAA 021145Z 07007KT 8SM SCT020CB BKN090 BKN300 24/22 A2985 RMK SLP107 52004 934 8/362

More Conditions Fewer Conditions

10-Day Weather Forecast

Almanac

Astronomy

Oct. 02, 2014 Rise Set
Actual Time 7:29 AM CDT 7:27 PM CDT
Civil Twilight 7:07 AM CDT 7:48 PM CDT
Nautical Twilight 6:42 AM CDT 8:13 PM CDT
Astronomical Twilight 6:17 AM CDT 8:38 PM CDT
Moon 2:49 PM CDT 1:36 AM CDT
Length of Visible Light 12h 40m
Length of Day
11h 57m
Tomorrow will be 0m 55s shorter.
First Quarter, 58% of the Moon is Illuminated
Today
First Quarter
Oct 8
Full
Oct 15
Last Quarter
Oct 23
New
Oct 30
First Quarter

Yesterday's Extremes

Country Highs Country Lows

Community

WunderPhotos

Upload Photos

1,758,226 photos uploaded!

WunderBlogs® & News

By Dr. Jeff Masters
Director of Meteorology, Weather Underground
By Kari Strenfel
Meteorologist, Weather Underground
By Christopher C. Burt
Weather Historian, Weather Underground
October 2, 2014
October 2, 2014
October 2, 2014

Nearby

Snow Depth

Not available.

Earthquake Activity

City Distance Mag. Time & Date
No recent earthquake activity has been reported nearby.
Minimum magnitude displayed is 2.5.

Coastal Water Temperatures

Place Temperature
No Stations Reporting

Nearby Weather Stations